Time;durP1;ratioP1;P1;durP2;ratioP2;P2;SDS_P1;SDS_P2;PMS_P1;PMS_P2;Temp;Humidity;BMP_temperature;BMP_pressure;BME280_temperature;BME280_humidity;BME280_pressure;Samples;Min_cycle;Max_cycle;Signal;HPM_P1;HPM_P2
2022/01/15 00:01:36;;;;;;;3.10;2.30;;;;;;;5.65;46.55;96297.81;5113422;28;20099;-61
2022/01/15 00:04:02;;;;;;;5.20;2.60;;;;;;;5.56;46.77;96291.09;5113597;28;20365;-61
2022/01/15 00:06:27;;;;;;;4.75;3.08;;;;;;;5.66;46.95;96312.53;5113655;28;20031;-61
2022/01/15 00:08:53;;;;;;;4.72;2.42;;;;;;;5.63;47.36;96308.25;5113331;28;20591;-61
2022/01/15 00:11:19;;;;;;;4.00;2.22;;;;;;;5.60;47.49;96317.84;5113296;28;20038;-61
2022/01/15 00:13:52;;;;;;;3.95;2.42;;;;;;;5.63;47.90;96310.00;5113535;28;20020;-61
2022/01/15 00:16:33;;;;;;;4.75;2.55;;;;;;;5.64;47.93;96307.38;5113434;28;20147;-61
2022/01/15 00:19:09;;;;;;;;;;;;;;;5.74;47.18;96299.34;5113655;28;20114;-61
2022/01/15 00:21:35;;;;;;;4.80;3.20;;;;;;;5.64;47.15;96322.09;5113341;28;20357;-62
2022/01/15 00:24:02;;;;;;;3.63;2.30;;;;;;;5.68;47.39;96311.59;5113263;28;20092;-61
2022/01/15 00:26:27;;;;;;;5.93;3.47;;;;;;;5.70;47.17;96324.56;5113379;28;20015;-62
2022/01/15 00:28:53;;;;;;;4.68;2.75;;;;;;;5.72;47.37;96332.31;5116908;28;20016;-62
2022/01/15 00:31:19;;;;;;;4.05;2.55;;;;;;;5.75;46.91;96329.63;5117159;28;20035;-62
2022/01/15 00:33:44;;;;;;;4.65;2.65;;;;;;;5.75;47.82;96332.25;5117246;28;20028;-62
2022/01/15 00:36:10;;;;;;;5.43;2.58;;;;;;;5.80;47.24;96327.78;5117179;28;20098;-61
2022/01/15 00:38:36;;;;;;;4.75;2.80;;;;;;;5.81;47.38;96321.72;5117166;28;20034;-62
2022/01/15 00:41:01;;;;;;;3.83;2.45;;;;;;;5.80;47.68;96333.84;5115912;28;20363;-62
2022/01/15 00:43:27;;;;;;;8.73;2.65;;;;;;;5.78;48.31;96343.38;5117040;28;20362;-61
2022/01/15 00:45:55;;;;;;;5.72;3.05;;;;;;;5.76;48.38;96352.09;5116910;28;20023;-62
2022/01/15 00:48:21;;;;;;;3.58;2.42;;;;;;;5.73;48.49;96344.38;5116899;28;20416;-62
2022/01/15 00:50:46;;;;;;;4.22;2.55;;;;;;;5.76;48.39;96344.31;5115725;28;20081;-61
2022/01/15 00:53:12;;;;;;;5.07;3.30;;;;;;;5.75;48.91;96353.84;5116863;28;20038;-62
2022/01/15 00:55:37;;;;;;;4.68;2.83;;;;;;;5.68;49.18;96362.66;5116830;28;20023;-62
2022/01/15 00:58:03;;;;;;;3.70;2.70;;;;;;;5.65;49.41;96353.19;5116670;28;20031;-62
2022/01/15 01:00:29;;;;;;;5.20;2.67;;;;;;;5.72;49.43;96364.28;5116596;28;20062;-61
2022/01/15 01:02:54;;;;;;;3.70;2.40;;;;;;;5.67;49.44;96384.31;5116633;27;20069;-62
2022/01/15 01:05:21;;;;;;;3.60;2.90;;;;;;;5.69;49.79;96378.19;5116642;28;20376;-62
2022/01/15 01:07:47;;;;;;;6.85;2.83;;;;;;;5.67;49.96;96371.34;5116719;28;20038;-61
2022/01/15 01:23:19;;;;;;;5.72;3.13;;;;;;;5.49;51.67;96416.66;5116347;28;20063;-62
2022/01/15 01:25:49;;;;;;;6.15;3.22;;;;;;;5.43;52.00;96410.72;5116294;28;20027;-62
2022/01/15 01:28:25;;;;;;;5.33;3.17;;;;;;;5.40;51.88;96415.97;5116245;28;20027;-62
2022/01/15 01:36:01;;;;;;;8.15;2.80;;;;;;;5.39;52.83;96440.19;5116187;28;20058;-62
2022/01/15 01:38:32;;;;;;;5.13;3.35;;;;;;;5.48;53.10;96431.38;5116014;28;20023;-61
2022/01/15 01:40:59;;;;;;;5.45;3.22;;;;;;;5.61;52.75;96431.16;5115919;28;20544;-61
2022/01/15 01:43:43;;;;;;;4.13;3.05;;;;;;;5.54;53.78;96436.44;5115906;28;20028;-62
2022/01/15 01:46:16;;;;;;;5.93;3.30;;;;;;;5.51;53.56;96431.31;5115836;28;20031;-62
2022/01/15 01:48:42;;;;;;;9.75;3.35;;;;;;;5.46;53.84;96442.69;5115762;28;20028;-62
2022/01/15 01:51:08;;;;;;;4.07;3.28;;;;;;;5.39;54.42;96439.34;5115580;28;20016;-62
2022/01/15 01:53:37;;;;;;;4.63;3.13;;;;;;;5.43;54.14;96441.00;5115703;28;20068;-62
2022/01/15 01:56:04;;;;;;;4.53;3.35;;;;;;;5.41;54.15;96441.03;5115660;27;20024;-62
2022/01/15 01:58:29;;;;;;;6.15;3.67;;;;;;;5.42;54.34;96444.50;5115543;28;20089;-61
2022/01/15 02:00:55;;;;;;;10.27;3.30;;;;;;;5.39;54.71;96444.53;5115597;28;20028;-61
2022/01/15 02:03:20;;;;;;;5.30;3.45;;;;;;;5.34;54.57;96449.81;5115515;28;20020;-61
2022/01/15 02:05:46;;;;;;;4.22;2.90;;;;;;;5.35;54.53;96450.66;5115590;28;20469;-61
2022/01/15 02:08:12;;;;;;;5.13;3.05;;;;;;;5.46;54.21;96464.31;5115500;27;20020;-61
2022/01/15 02:10:37;;;;;;;3.90;2.63;;;;;;;5.48;54.20;96466.88;5115207;28;20397;-62
2022/01/15 02:13:08;;;;;;;5.15;3.22;;;;;;;5.31;55.03;96473.22;5115215;28;20430;-62
2022/01/15 02:15:35;;;;;;;3.00;2.28;;;;;;;5.26;54.92;96475.88;5115234;28;20039;-62
2022/01/15 02:18:02;;;;;;;6.50;3.17;;;;;;;5.35;54.62;96468.81;5114980;28;20055;-62
2022/01/15 02:25:51;;;;;;;5.28;3.15;;;;;;;5.21;55.29;96469.06;5115344;28;20042;-62
2022/01/15 02:28:18;;;;;;;;;;;;;;;5.18;55.43;96470.00;5115455;28;20039;-61
2022/01/15 02:30:43;;;;;;;4.80;2.92;;;;;;;5.10;55.96;96461.47;5114978;28;19908;-61
2022/01/15 02:33:09;;;;;;;6.00;3.10;;;;;;;5.01;56.53;96465.09;5114953;28;20030;-61
2022/01/15 02:35:35;;;;;;;4.40;3.28;;;;;;;5.02;56.79;96471.97;5114870;28;20028;-61
2022/01/15 02:38:03;;;;;;;4.72;2.92;;;;;;;4.91;57.42;96480.78;5115033;28;20015;-61
2022/01/15 02:40:29;;;;;;;5.63;3.65;;;;;;;4.91;57.56;96477.34;5114754;28;20016;-61
2022/01/15 02:42:56;;;;;;;6.47;3.55;;;;;;;4.92;57.38;96476.47;5114870;28;20441;-61
2022/01/15 02:45:22;;;;;;;5.75;3.88;;;;;;;4.84;57.72;96470.56;5114705;28;20050;-62
2022/01/15 02:48:01;;;;;;;5.00;3.58;;;;;;;4.85;57.86;96472.28;5114525;28;20032;-60
2022/01/15 02:50:27;;;;;;;4.40;3.25;;;;;;;4.80;58.30;96480.97;5114127;28;20023;-61
2022/01/15 02:52:53;;;;;;;5.80;3.88;;;;;;;4.76;58.62;96471.53;5114564;28;20011;-61
2022/01/15 02:55:18;;;;;;;5.60;3.47;;;;;;;4.75;58.73;96480.19;5114405;28;20031;-60
2022/01/15 02:57:44;;;;;;;5.15;2.97;;;;;;;4.71;58.58;96480.25;5114388;28;20046;-61
2022/01/15 03:00:10;;;;;;;6.28;3.50;;;;;;;4.67;59.08;96469.94;5114325;28;20024;-62
2022/01/15 03:02:36;;;;;;;5.03;3.88;;;;;;;4.68;59.32;96469.06;5114212;28;20076;-61
2022/01/15 03:05:01;;;;;;;6.22;3.60;;;;;;;4.68;59.30;96474.25;5114310;28;20024;-61
2022/01/15 03:07:27;;;;;;;7.63;4.60;;;;;;;4.63;59.64;96478.63;5114401;28;20024;-61
2022/01/15 03:09:52;;;;;;;5.93;3.42;;;;;;;4.68;59.38;96479.44;5114176;28;20103;-62
2022/01/15 03:12:18;;;;;;;6.43;4.05;;;;;;;4.62;59.69;96466.56;5112723;28;20100;-61
2022/01/15 03:14:47;;;;;;;6.38;3.90;;;;;;;4.63;60.09;96485.53;5114071;28;20020;-62
2022/01/15 03:17:12;;;;;;;5.40;3.90;;;;;;;4.70;59.74;96476.81;5113980;28;20099;-62
2022/01/15 03:19:38;;;;;;;5.47;3.97;;;;;;;4.66;60.19;96493.28;5113840;27;20147;-61
2022/01/15 03:22:04;;;;;;;6.40;3.88;;;;;;;4.72;60.37;96508.75;5113954;28;20030;-62
2022/01/15 03:24:29;;;;;;;5.90;3.92;;;;;;;4.67;60.22;96510.56;5114008;28;20035;-61
2022/01/15 03:26:55;;;;;;;5.80;4.00;;;;;;;4.70;60.16;96523.47;5113923;28;20051;-61
2022/01/15 03:29:20;;;;;;;6.75;4.50;;;;;;;4.72;60.36;96520.88;5113882;28;20027;-61
2022/01/15 03:31:46;;;;;;;6.30;4.32;;;;;;;4.65;60.61;96525.25;5113761;28;20035;-61
2022/01/15 03:34:11;;;;;;;5.63;4.00;;;;;;;4.66;60.85;96516.59;5113797;28;20028;-61
2022/01/15 03:36:37;;;;;;;5.22;3.65;;;;;;;4.62;60.69;96530.50;5113761;28;20023;-61
2022/01/15 03:39:03;;;;;;;5.45;3.97;;;;;;;4.53;61.38;96531.47;5113845;28;20030;-61
2022/01/15 03:41:29;;;;;;;6.63;4.30;;;;;;;4.51;61.45;96528.91;5113744;28;20028;-61
2022/01/15 03:43:54;;;;;;;7.40;4.07;;;;;;;4.46;61.74;96533.31;5113750;28;20400;-62
2022/01/15 03:46:21;;;;;;;8.48;4.65;;;;;;;4.47;61.71;96539.31;5113693;28;20019;-61
2022/01/15 03:48:47;;;;;;;8.95;4.15;;;;;;;4.39;62.10;96539.44;5113589;27;20476;-61
2022/01/15 03:51:13;;;;;;;8.48;5.03;;;;;;;4.35;62.08;96540.34;5113473;28;20023;-61
2022/01/15 03:53:40;;;;;;;6.40;4.40;;;;;;;4.30;62.21;96541.28;5113601;28;20023;-61
2022/01/15 03:56:05;;;;;;;6.35;4.57;;;;;;;4.35;62.50;96532.56;5113581;28;20019;-61
2022/01/15 03:58:31;;;;;;;7.90;5.13;;;;;;;4.34;62.23;96556.78;5113587;28;20072;-61
2022/01/15 04:00:57;;;;;;;7.20;4.88;;;;;;;4.26;62.71;96575.00;5113455;28;20103;-61
2022/01/15 04:03:22;;;;;;;7.05;4.55;;;;;;;4.28;62.36;96578.44;5116240;28;20030;-61
2022/01/15 04:05:48;;;;;;;9.07;5.20;;;;;;;4.27;62.82;96584.47;5117651;28;20027;-61
2022/01/15 04:08:13;;;;;;;5.65;4.40;;;;;;;4.24;62.62;96569.84;5117820;28;20024;-61
2022/01/15 04:10:39;;;;;;;5.93;4.43;;;;;;;4.25;62.58;96579.31;5117564;27;20020;-62
2022/01/15 04:13:05;;;;;;;8.40;5.40;;;;;;;4.20;63.09;96582.84;5117710;28;20023;-62
2022/01/15 04:15:30;;;;;;;9.43;5.75;;;;;;;4.14;63.06;96596.72;5117672;28;20343;-62
2022/01/15 04:17:56;;;;;;;8.63;5.70;;;;;;;4.17;63.37;96589.78;5117311;28;20044;-61
2022/01/15 04:20:23;;;;;;;7.53;5.30;;;;;;;4.12;63.23;96604.50;5117598;27;20055;-61
2022/01/15 04:22:51;;;;;;;6.57;4.78;;;;;;;4.12;63.52;96596.72;5117430;28;20473;-62
2022/01/15 04:25:17;;;;;;;9.15;5.93;;;;;;;4.04;63.73;96617.53;5117374;28;20016;-62
2022/01/15 04:27:44;;;;;;;8.43;5.70;;;;;;;4.03;63.77;96633.94;5117302;28;20027;-62
2022/01/15 04:30:12;;;;;;;7.80;5.75;;;;;;;3.99;63.94;96645.22;5117303;28;20034;-61
2022/01/15 04:32:38;;;;;;;11.35;6.40;;;;;;;3.93;64.11;96650.44;5117273;28;20027;-61
2022/01/15 04:35:04;;;;;;;11.43;6.63;;;;;;;3.91;64.24;96657.34;5117364;28;20366;-62
2022/01/15 04:37:38;;;;;;;8.40;6.03;;;;;;;3.90;64.21;96668.59;5117049;28;20031;-62
2022/01/15 04:40:05;;;;;;;9.55;5.85;;;;;;;3.85;64.44;96689.34;5117221;28;20104;-62
2022/01/15 04:42:31;;;;;;;10.25;4.85;;;;;;;3.82;64.47;96680.75;5117012;27;20026;-62
2022/01/15 04:44:57;;;;;;;9.48;6.50;;;;;;;3.80;64.42;96673.00;5117018;28;20020;-62
2022/01/15 04:47:23;;;;;;;9.65;6.35;;;;;;;3.74;64.70;96666.16;5117052;28;20016;-62
2022/01/15 04:49:48;;;;;;;10.80;6.82;;;;;;;3.76;64.74;96679.06;5116860;28;20031;-62
2022/01/15 04:52:14;;;;;;;9.77;6.32;;;;;;;3.74;64.83;96683.41;5116837;28;20023;-62
2022/01/15 04:54:39;;;;;;;8.85;6.28;;;;;;;3.77;64.71;96680.78;5117035;28;20468;-62
2022/01/15 04:57:05;;;;;;;9.35;5.70;;;;;;;3.76;64.78;96673.88;5116806;28;20477;-62
2022/01/15 04:59:31;;;;;;;11.55;6.65;;;;;;;3.74;64.54;96686.00;5116708;28;20031;-62
2022/01/15 05:01:56;;;;;;;9.68;6.07;;;;;;;3.74;64.53;96699.78;5116625;28;20028;-62
2022/01/15 05:04:22;;;;;;;8.15;5.82;;;;;;;3.72;64.79;96690.31;5116552;28;20064;-62
2022/01/15 05:06:47;;;;;;;8.90;6.03;;;;;;;3.72;64.53;96716.19;5116606;28;20032;-62
2022/01/15 05:09:13;;;;;;;8.60;6.20;;;;;;;3.67;64.72;96714.50;5116554;28;20016;-62
2022/01/15 05:11:58;;;;;;;14.75;9.73;;;;;;;3.65;65.01;96729.16;5116569;28;20107;-62
2022/01/15 05:14:24;;;;;;;11.90;7.32;;;;;;;3.64;65.20;96755.03;5115982;28;20039;-62
2022/01/15 05:16:49;;;;;;;11.68;7.60;;;;;;;3.59;65.25;96757.69;5116436;28;20028;-61
2022/01/15 05:19:15;;;;;;;10.95;6.93;;;;;;;3.57;65.25;96774.94;5116174;28;20040;-62
2022/01/15 05:21:41;;;;;;;11.25;7.95;;;;;;;3.58;65.62;96787.00;5116484;28;20032;-61
2022/01/15 05:24:07;;;;;;;10.70;7.00;;;;;;;3.61;65.26;96797.31;5116222;28;20028;-62
2022/01/15 05:26:32;;;;;;;9.35;6.25;;;;;;;3.54;65.10;96799.09;5116356;28;20469;-62
2022/01/15 05:28:58;;;;;;;13.27;7.63;;;;;;;3.65;65.21;96800.78;5116155;28;20068;-62
2022/01/15 05:31:24;;;;;;;13.63;7.38;;;;;;;3.66;65.15;96794.72;5115992;28;20035;-62
2022/01/15 05:33:50;;;;;;;11.85;7.60;;;;;;;3.73;64.63;96805.91;5116211;28;20027;-62
2022/01/15 05:36:16;;;;;;;11.77;7.32;;;;;;;3.70;64.65;96808.50;5116065;28;20012;-62
2022/01/15 05:38:42;;;;;;;12.23;7.72;;;;;;;3.67;64.85;96810.22;5115980;28;20035;-62
2022/01/15 05:41:07;;;;;;;13.18;8.35;;;;;;;3.72;64.71;96825.75;5116001;28;20465;-61
2022/01/15 05:43:33;;;;;;;14.30;9.45;;;;;;;3.77;64.42;96817.94;5115954;28;20381;-63
2022/01/15 05:45:58;;;;;;;16.35;9.93;;;;;;;3.74;64.46;96816.25;5115928;28;20033;-62
2022/01/15 05:48:24;;;;;;;12.07;7.60;;;;;;;3.81;64.52;96823.94;5115817;28;20087;-62
2022/01/15 05:50:49;;;;;;;12.30;8.05;;;;;;;3.69;64.29;96815.41;5115656;28;20080;-62
2022/01/15 05:53:15;;;;;;;12.63;8.27;;;;;;;3.70;64.53;96829.22;5115777;28;20482;-62
2022/01/15 05:55:40;;;;;;;11.38;7.80;;;;;;;3.72;64.44;96819.69;5115721;28;20030;-62
2022/01/15 05:58:09;;;;;;;16.02;8.43;;;;;;;3.66;64.81;96825.75;5115736;28;20027;-61
2022/01/15 06:00:35;;;;;;;11.65;7.20;;;;;;;3.65;64.64;96824.06;5114401;28;20434;-62
2022/01/15 06:03:02;;;;;;;11.60;7.93;;;;;;;3.64;64.73;96825.78;5115453;27;20028;-61
2022/01/15 06:05:27;;;;;;;10.55;7.93;;;;;;;3.70;64.33;96827.47;5115434;27;20019;-62
2022/01/15 06:07:53;;;;;;;13.75;7.55;;;;;;;3.70;64.45;96824.03;5115427;28;20028;-62
2022/01/15 06:10:18;;;;;;;9.23;7.32;;;;;;;3.74;64.14;96829.19;5115332;27;20028;-62
2022/01/15 06:12:44;;;;;;;11.77;7.72;;;;;;;3.73;64.42;96829.19;5115372;28;20107;-62
2022/01/15 06:15:12;;;;;;;12.45;8.10;;;;;;;3.72;64.16;96838.69;5115267;28;20023;-62
2022/01/15 06:17:38;;;;;;;14.10;8.02;;;;;;;3.65;64.50;96837.00;5114970;28;20077;-62
2022/01/15 06:20:04;;;;;;;11.45;7.78;;;;;;;3.64;64.56;96841.31;5115257;28;20019;-61
2022/01/15 06:22:30;;;;;;;10.85;7.30;;;;;;;3.63;64.50;96847.34;5115042;28;20028;-62
2022/01/15 06:24:55;;;;;;;11.43;7.25;;;;;;;3.66;64.57;96849.06;5114401;28;20053;-62
2022/01/15 06:27:21;;;;;;;12.10;7.82;;;;;;;3.63;64.45;96857.72;5115044;28;20027;-61
2022/01/15 06:29:47;;;;;;;13.10;7.75;;;;;;;3.62;64.55;96850.81;5115100;28;20042;-61
2022/01/15 06:32:12;;;;;;;15.02;8.02;;;;;;;3.60;64.56;96855.13;5115016;28;20066;-60
2022/01/15 06:34:39;;;;;;;14.70;9.07;;;;;;;3.62;64.45;96857.72;5114988;28;20388;-61
2022/01/15 06:37:05;;;;;;;11.10;7.90;;;;;;;3.65;64.40;96853.34;5114899;28;20020;-62
2022/01/15 06:39:33;;;;;;;13.55;7.82;;;;;;;3.68;64.45;96860.28;5114709;28;20027;-61
2022/01/15 06:41:58;;;;;;;11.20;7.55;;;;;;;3.66;64.16;96860.28;5114647;28;20027;-61
2022/01/15 06:44:24;;;;;;;15.88;8.50;;;;;;;3.72;63.89;96863.69;5114773;28;20015;-62
2022/01/15 06:46:49;;;;;;;12.35;8.02;;;;;;;3.73;64.12;96868.00;5114816;28;20104;-62
2022/01/15 06:49:15;;;;;;;10.82;7.63;;;;;;;3.74;63.93;96864.53;5114713;28;20016;-61
2022/01/15 06:51:40;;;;;;;12.07;8.18;;;;;;;3.77;64.06;96872.28;5114381;28;20037;-61
2022/01/15 06:54:06;;;;;;;10.48;7.15;;;;;;;3.74;64.28;96869.72;5114574;28;20028;-61
2022/01/15 06:56:32;;;;;;;14.55;9.27;;;;;;;3.78;64.25;96874.00;5114661;28;20020;-62
2022/01/15 06:58:58;;;;;;;12.10;8.25;;;;;;;3.88;64.00;96886.03;5114526;28;20023;-61
2022/01/15 07:01:24;;;;;;;12.07;8.05;;;;;;;3.88;64.07;96890.34;5114366;28;20028;-62
2022/01/15 07:03:49;;;;;;;11.35;7.82;;;;;;;3.90;63.85;96893.78;5114528;28;20020;-62
2022/01/15 07:06:15;;;;;;;12.25;7.57;;;;;;;3.87;63.91;96898.97;5114478;28;20019;-61
2022/01/15 07:08:40;;;;;;;11.10;7.38;;;;;;;3.94;64.18;96903.25;5114295;28;20409;-61
2022/01/15 07:11:06;;;;;;;18.10;9.38;;;;;;;3.92;63.83;96905.84;5114139;28;20016;-61
2022/01/15 07:13:33;;;;;;;14.00;9.23;;;;;;;3.94;63.76;96916.19;5114216;28;20065;-61
2022/01/15 07:15:59;;;;;;;11.95;8.85;;;;;;;3.96;64.00;96926.53;5113885;28;20054;-61
2022/01/15 07:18:25;;;;;;;12.27;8.23;;;;;;;3.91;63.78;96921.38;5113786;28;20398;-62
2022/01/15 07:20:54;;;;;;;11.65;7.60;;;;;;;3.84;64.05;96925.75;5114177;28;20147;-61
2022/01/15 07:23:20;;;;;;;11.82;8.10;;;;;;;3.87;63.59;96925.72;5112881;28;20412;-61
2022/01/15 07:25:46;;;;;;;12.63;8.40;;;;;;;3.93;63.89;96930.00;5112749;28;20044;-61
2022/01/15 07:28:12;;;;;;;18.23;8.10;;;;;;;3.97;63.55;96933.47;5113876;28;20024;-61
2022/01/15 07:30:38;;;;;;;11.50;8.13;;;;;;;3.97;63.80;96936.88;5113786;28;20039;-61
2022/01/15 07:33:04;;;;;;;12.15;8.13;;;;;;;4.06;63.14;96937.72;5113881;28;20485;-61
2022/01/15 07:35:30;;;;;;;10.38;7.57;;;;;;;4.08;63.08;96943.72;5114001;28;20027;-61
2022/01/15 07:37:56;;;;;;;12.35;8.30;;;;;;;4.18;63.13;96945.41;5113608;28;20031;-61
2022/01/15 07:40:22;;;;;;;13.23;8.68;;;;;;;4.33;62.80;96949.63;5113721;28;20024;-61
2022/01/15 07:42:49;;;;;;;11.00;8.07;;;;;;;4.36;62.42;96959.97;5112463;28;20435;-61
2022/01/15 07:45:16;;;;;;;12.65;8.32;;;;;;;4.43;62.14;96955.63;5113728;28;20540;-61
2022/01/15 07:47:42;;;;;;;11.48;8.45;;;;;;;4.48;62.00;96947.81;5113667;28;20465;-61
2022/01/15 07:50:23;;;;;;;10.88;7.90;;;;;;;4.46;61.49;96950.41;5113660;28;20442;-62
2022/01/15 07:52:51;;;;;;;12.57;8.23;;;;;;;4.50;61.63;96951.25;5113586;28;20039;-61
2022/01/15 07:55:16;;;;;;;13.15;8.75;;;;;;;4.59;61.06;96956.38;5113470;28;20020;-62
2022/01/15 07:57:44;;;;;;;10.63;7.85;;;;;;;4.70;60.98;96960.59;5113547;28;20042;-62
2022/01/15 08:00:11;;;;;;;10.93;8.40;;;;;;;4.77;60.70;96955.38;5113622;28;20118;-62
2022/01/15 08:02:37;;;;;;;11.80;8.32;;;;;;;4.84;60.56;96957.91;5113557;28;20023;-62
2022/01/15 08:05:03;;;;;;;13.73;7.70;;;;;;;4.84;60.61;96956.16;5113533;28;20019;-62
2022/01/15 08:07:28;;;;;;;12.30;7.28;;;;;;;5.22;59.52;96953.22;5113736;28;20023;-62
2022/01/15 08:09:54;;;;;;;11.43;7.68;;;;;;;6.41;57.15;96955.31;5113471;28;20019;-62
2022/01/15 08:12:21;;;;;;;10.93;6.82;;;;;;;7.97;53.14;96942.13;5113343;28;20042;-62
2022/01/15 08:14:47;;;;;;;9.77;6.68;;;;;;;10.32;47.58;96943.16;5113327;28;20028;-63
2022/01/15 08:17:12;;;;;;;9.05;7.00;;;;;;;11.88;42.63;96947.63;5113268;28;20023;-63
2022/01/15 08:19:38;;;;;;;11.23;8.00;;;;;;;12.46;40.99;96956.03;5113243;28;20043;-63
2022/01/15 08:22:03;;;;;;;9.43;7.20;;;;;;;12.39;40.37;96963.25;5113359;28;20542;-62
2022/01/15 08:24:29;;;;;;;10.52;7.05;;;;;;;12.76;39.31;96966.19;5113409;28;20393;-63
2022/01/15 08:26:55;;;;;;;8.85;7.22;;;;;;;13.98;37.36;96975.16;5113319;28;20094;-63
2022/01/15 08:29:20;;;;;;;8.73;6.72;;;;;;;14.02;35.85;96973.22;5113234;28;20370;-63
2022/01/15 08:31:46;;;;;;;10.45;7.55;;;;;;;13.83;36.38;96968.81;5113050;28;20016;-63
2022/01/15 08:34:12;;;;;;;9.10;6.55;;;;;;;13.74;35.98;96969.19;5113163;28;20023;-63
2022/01/15 08:36:38;;;;;;;9.98;6.97;;;;;;;13.50;36.65;96975.47;5113152;28;20020;-63
2022/01/15 08:39:05;;;;;;;8.77;6.63;;;;;;;12.76;37.92;96967.06;5113077;28;20055;-63
2022/01/15 08:41:31;;;;;;;11.18;7.93;;;;;;;12.17;39.22;96953.59;5113134;28;20032;-63
2022/01/15 08:43:56;;;;;;;13.90;9.52;;;;;;;11.57;39.92;96970.56;5113033;28;20061;-63
2022/01/15 08:46:23;;;;;;;11.50;8.23;;;;;;;10.98;41.10;96976.00;5113280;28;20030;-63
2022/01/15 08:48:49;;;;;;;10.02;7.22;;;;;;;10.32;42.86;96976.28;5114548;28;20022;-62
2022/01/15 08:51:15;;;;;;;9.48;7.07;;;;;;;9.86;44.08;96982.81;5116900;28;20073;-63
2022/01/15 08:53:40;;;;;;;9.48;7.20;;;;;;;9.73;44.56;96982.28;5116836;28;20035;-63
2022/01/15 08:56:06;;;;;;;11.35;7.60;;;;;;;9.52;44.91;96988.09;5116779;28;20110;-63
2022/01/15 08:58:32;;;;;;;9.98;6.90;;;;;;;9.33;45.23;96983.38;5117001;28;20161;-62
2022/01/15 09:00:58;;;;;;;12.20;7.30;;;;;;;9.48;45.10;96990.78;5116786;27;20019;-62
2022/01/15 09:03:24;;;;;;;10.57;7.10;;;;;;;9.64;45.20;96993.00;5116779;28;20035;-62
2022/01/15 09:05:51;;;;;;;10.98;7.47;;;;;;;9.57;45.07;96979.25;5116537;28;20027;-62
2022/01/15 09:08:20;;;;;;;9.68;7.57;;;;;;;9.22;45.16;96973.22;5116542;28;20027;-62
2022/01/15 09:10:46;;;;;;;11.35;7.53;;;;;;;8.74;46.45;96969.16;5115397;28;20038;-62
2022/01/15 09:13:12;;;;;;;13.88;9.02;;;;;;;8.18;47.11;96958.19;5116807;28;20019;-62
2022/01/15 09:15:38;;;;;;;9.75;7.35;;;;;;;7.74;48.73;96966.06;5116494;28;20107;-62
2022/01/15 09:18:04;;;;;;;9.45;7.53;;;;;;;7.63;49.77;96968.84;5116190;28;20039;-62
2022/01/15 09:20:30;;;;;;;13.75;7.97;;;;;;;7.68;48.49;96954.84;5116350;28;20035;-62
2022/01/15 09:22:56;;;;;;;11.27;6.63;;;;;;;7.64;48.69;96955.81;5116267;28;20648;-62
2022/01/15 09:25:22;;;;;;;9.68;6.13;;;;;;;7.60;48.11;96956.75;5116333;28;20015;-62
2022/01/15 09:30:32;;;;;;;13.10;7.13;;;;;;;7.53;49.01;96963.81;5116417;28;20495;-62
2022/01/15 09:32:58;;;;;;;8.02;5.75;;;;;;;7.33;48.83;96952.06;5116081;28;20092;-62
2022/01/15 09:35:28;;;;;;;10.32;7.05;;;;;;;7.48;48.31;96946.56;5116154;28;20473;-62
2022/01/15 09:37:55;;;;;;;11.30;6.57;;;;;;;7.54;48.01;96939.53;5116215;28;20023;-63
2022/01/15 09:40:23;;;;;;;10.13;5.75;;;;;;;7.74;47.18;96947.81;5116101;28;20020;-62
2022/01/15 09:42:49;;;;;;;9.45;5.97;;;;;;;7.96;46.27;96946.50;5115871;28;20019;-63
2022/01/15 09:45:20;;;;;;;9.55;6.50;;;;;;;8.14;46.84;96943.50;5115883;28;20079;-62
2022/01/15 09:47:53;;;;;;;12.82;6.82;;;;;;;8.20;45.25;96939.03;5115893;28;20054;-62
2022/01/15 09:50:19;;;;;;;9.20;5.93;;;;;;;8.21;45.73;96926.84;5115982;28;20023;-63
2022/01/15 09:52:45;;;;;;;8.32;5.75;;;;;;;8.07;46.07;96938.44;5115710;28;20489;-63
2022/01/15 09:55:13;;;;;;;8.15;5.03;;;;;;;7.95;46.04;96947.38;5115696;28;20024;-62
2022/01/15 09:57:40;;;;;;;7.78;5.40;;;;;;;8.08;46.00;96937.56;5115616;28;20016;-62
2022/01/15 10:00:14;;;;;;;9.25;6.07;;;;;;;8.07;46.13;96935.00;5114379;28;20023;-62
2022/01/15 10:02:44;;;;;;;9.52;6.03;;;;;;;7.93;45.97;96940.47;5115718;28;20031;-62
2022/01/15 10:05:11;;;;;;;10.33;6.53;;;;;;;7.88;46.98;96926.69;5115613;28;20405;-62
2022/01/15 10:07:37;;;;;;;7.38;5.93;;;;;;;7.87;47.14;96932.78;5115540;27;20485;-62
2022/01/15 10:10:20;;;;;;;9.27;6.25;;;;;;;7.99;46.66;96932.53;5115474;28;20062;-62
2022/01/15 10:12:46;;;;;;;8.00;5.57;;;;;;;8.05;45.94;96924.59;5115391;28;20023;-63
2022/01/15 10:15:14;;;;;;;9.82;6.05;;;;;;;8.04;46.22;96928.06;5115444;28;20372;-62
2022/01/15 10:17:41;;;;;;;10.20;6.40;;;;;;;8.08;47.02;96929.75;5115030;28;20023;-62
2022/01/15 10:20:19;;;;;;;16.15;8.23;;;;;;;8.14;45.98;96933.09;5115288;28;20030;-62
2022/01/15 10:22:47;;;;;;;9.07;5.78;;;;;;;8.06;46.97;96930.66;5115067;28;20032;-62
2022/01/15 10:25:19;;;;;;;8.02;5.28;;;;;;;8.01;46.02;96927.28;5115132;28;20115;-62
2022/01/15 10:27:50;;;;;;;6.75;5.07;;;;;;;7.92;45.90;96936.16;5115076;28;20032;-62
2022/01/15 10:30:25;;;;;;;8.68;5.47;;;;;;;8.02;46.08;96929.88;5115039;28;20065;-62
2022/01/15 10:33:19;;;;;;;8.95;5.70;;;;;;;8.01;46.18;96928.13;5114865;28;20028;-62
2022/01/15 10:35:46;;;;;;;8.80;5.90;;;;;;;8.00;46.53;96920.38;5112825;28;20040;-61
2022/01/15 10:38:17;;;;;;;6.43;4.88;;;;;;;8.00;45.81;96926.44;5113634;28;20439;-62
2022/01/15 10:40:50;;;;;;;9.15;5.45;;;;;;;8.07;46.35;96917.59;5114994;28;20024;-62
2022/01/15 10:43:18;;;;;;;8.63;5.30;;;;;;;8.17;45.73;96910.44;5114690;28;20059;-62
2022/01/15 10:45:55;;;;;;;7.10;4.90;;;;;;;8.16;46.06;96913.06;5114811;28;20023;-62
2022/01/15 10:48:32;;;;;;;5.22;4.15;;;;;;;7.94;44.94;96909.19;5114594;28;20477;-62
2022/01/15 10:51:13;;;;;;;9.00;5.57;;;;;;;7.86;45.84;96908.50;5114589;28;20069;-61
2022/01/15 10:53:40;;;;;;;;;;;;;;;7.94;45.94;96905.72;5115037;28;20034;-61
2022/01/15 10:56:08;;;;;;;9.07;5.18;;;;;;;8.01;46.60;96909.06;5114469;28;19911;-62
2022/01/15 10:58:35;;;;;;;7.38;5.03;;;;;;;8.17;45.10;96905.22;5114309;28;20015;-62
2022/01/15 11:01:01;;;;;;;7.28;4.60;;;;;;;8.14;45.18;96900.09;5114437;28;20024;-62
2022/01/15 11:03:46;;;;;;;8.38;5.28;;;;;;;8.27;45.69;96905.00;5114426;28;20085;-61
2022/01/15 11:06:12;;;;;;;9.73;5.35;;;;;;;8.38;45.24;96904.75;5114533;28;20027;-62
2022/01/15 11:08:40;;;;;;;7.70;5.32;;;;;;;8.30;45.29;96900.59;5114253;28;20026;-62
2022/01/15 11:11:13;;;;;;;7.45;5.28;;;;;;;8.41;45.02;96902.09;5113639;28;20536;-61
2022/01/15 11:13:41;;;;;;;7.53;5.50;;;;;;;8.31;45.19;96898.84;5114351;28;20028;-62
2022/01/15 11:16:15;;;;;;;10.35;5.55;;;;;;;8.40;45.47;96896.00;5114211;28;20020;-62
2022/01/15 11:18:46;;;;;;;8.15;5.53;;;;;;;8.38;45.24;96899.53;5114001;28;20044;-62
2022/01/15 11:21:16;;;;;;;8.57;5.60;;;;;;;8.36;44.62;96898.75;5114189;28;20119;-61
2022/01/15 11:23:43;;;;;;;7.43;5.10;;;;;;;8.38;44.66;96891.72;5114006;28;20031;-61
2022/01/15 11:26:12;;;;;;;8.93;5.22;;;;;;;8.36;44.15;96886.53;5113989;28;20019;-62
2022/01/15 11:28:38;;;;;;;7.55;5.00;;;;;;;8.27;45.00;96884.16;5113944;28;20023;-62
2022/01/15 11:31:15;;;;;;;7.40;4.68;;;;;;;8.28;43.15;96884.09;5113831;28;20030;-62
2022/01/15 11:33:49;;;;;;;7.63;4.72;;;;;;;8.23;43.34;96878.16;5113840;28;20430;-62
2022/01/15 11:36:31;;;;;;;6.03;4.20;;;;;;;8.21;42.94;96879.94;5113902;28;20023;-63
2022/01/15 11:38:58;;;;;;;7.30;4.68;;;;;;;8.23;42.35;96875.56;5113892;28;20370;-62
2022/01/15 11:41:26;;;;;;;6.10;3.88;;;;;;;8.25;41.83;96884.19;5113663;28;20020;-62
2022/01/15 11:43:59;;;;;;;6.15;4.40;;;;;;;8.24;41.90;96882.47;5113890;28;20020;-61
2022/01/15 11:46:25;;;;;;;6.47;3.67;;;;;;;8.28;41.34;96888.47;5113635;28;20028;-62
2022/01/15 11:48:51;;;;;;;6.28;4.38;;;;;;;8.17;40.90;96888.72;5113749;28;20050;-62
2022/01/15 11:51:18;;;;;;;6.40;3.78;;;;;;;8.18;40.78;96888.69;5113539;28;20035;-62
2022/01/15 11:53:48;;;;;;;8.35;3.97;;;;;;;8.08;39.75;96879.38;5113627;28;20035;-63
2022/01/15 11:56:21;;;;;;;5.70;3.38;;;;;;;8.00;36.98;96881.31;5113666;28;20031;-63
2022/01/15 11:58:47;;;;;;;5.55;3.22;;;;;;;7.89;37.26;96884.13;5113667;28;20545;-63
2022/01/15 12:01:38;;;;;;;3.08;2.60;;;;;;;7.80;35.25;96891.25;5113481;28;20069;-63
2022/01/15 12:04:29;;;;;;;5.80;2.42;;;;;;;7.80;32.51;96898.22;5113700;28;20019;-63
2022/01/15 12:07:01;;;;;;;5.00;2.47;;;;;;;7.78;32.51;96884.34;5113542;28;20051;-63